sensor_id;sensor_type;location;lat;lon;timestamp;temperature;humidity
10390;DHT22;5241;47.830;12.972;2023-02-28T00:00:27;-1.90;99.90
10390;DHT22;5241;47.830;12.972;2023-02-28T00:02:52;-1.80;99.90
10390;DHT22;5241;47.830;12.972;2023-02-28T00:05:20;-1.80;99.90
10390;DHT22;5241;47.830;12.972;2023-02-28T00:07:46;-1.90;99.90
10390;DHT22;5241;47.830;12.972;2023-02-28T00:10:15;-2.00;99.90
10390;DHT22;5241;47.830;12.972;2023-02-28T00:12:41;-2.00;99.90
10390;DHT22;5241;47.830;12.972;2023-02-28T00:15:09;-2.00;99.90
10390;DHT22;5241;47.830;12.972;2023-02-28T00:17:35;-2.00;99.90
10390;DHT22;5241;47.830;12.972;2023-02-28T00:20:01;-2.00;99.90
10390;DHT22;5241;47.830;12.972;2023-02-28T00:22:27;-2.00;99.90
10390;DHT22;5241;47.830;12.972;2023-02-28T00:24:53;-2.00;99.90
10390;DHT22;5241;47.830;12.972;2023-02-28T00:27:18;-2.00;99.90
10390;DHT22;5241;47.830;12.972;2023-02-28T00:29:46;-2.10;99.90
10390;DHT22;5241;47.830;12.972;2023-02-28T00:32:12;-2.30;99.90
10390;DHT22;5241;47.830;12.972;2023-02-28T00:34:37;-2.40;99.90
10390;DHT22;5241;47.830;12.972;2023-02-28T00:37:07;-2.40;99.90
10390;DHT22;5241;47.830;12.972;2023-02-28T00:39:35;-2.40;99.90
10390;DHT22;5241;47.830;12.972;2023-02-28T00:42:01;-2.50;99.90
10390;DHT22;5241;47.830;12.972;2023-02-28T00:44:28;-2.60;99.90
10390;DHT22;5241;47.830;12.972;2023-02-28T00:46:53;-2.70;99.90
10390;DHT22;5241;47.830;12.972;2023-02-28T00:49:20;-2.70;99.90
10390;DHT22;5241;47.830;12.972;2023-02-28T00:51:46;-2.70;99.90
10390;DHT22;5241;47.830;12.972;2023-02-28T00:54:11;-2.70;99.90
10390;DHT22;5241;47.830;12.972;2023-02-28T00:56:37;-2.90;99.90
10390;DHT22;5241;47.830;12.972;2023-02-28T00:59:02;-3.00;99.90
10390;DHT22;5241;47.830;12.972;2023-02-28T01:01:28;-3.10;99.90
10390;DHT22;5241;47.830;12.972;2023-02-28T01:03:53;-3.00;99.90
10390;DHT22;5241;47.830;12.972;2023-02-28T01:06:19;-3.00;99.90
10390;DHT22;5241;47.830;12.972;2023-02-28T01:08:44;-3.10;99.90
10390;DHT22;5241;47.830;12.972;2023-02-28T01:11:11;-3.20;99.90
10390;DHT22;5241;47.830;12.972;2023-02-28T01:13:38;-3.20;99.90
10390;DHT22;5241;47.830;12.972;2023-02-28T01:16:03;-3.20;99.90
10390;DHT22;5241;47.830;12.972;2023-02-28T01:18:29;-3.20;99.90
10390;DHT22;5241;47.830;12.972;2023-02-28T01:20:55;-3.30;99.90
10390;DHT22;5241;47.830;12.972;2023-02-28T01:23:22;-3.30;99.90
10390;DHT22;5241;47.830;12.972;2023-02-28T01:25:49;-3.30;99.90
10390;DHT22;5241;47.830;12.972;2023-02-28T01:28:15;-3.30;99.90
10390;DHT22;5241;47.830;12.972;2023-02-28T01:30:40;-3.40;99.90
10390;DHT22;5241;47.830;12.972;2023-02-28T01:33:06;-3.50;99.90
10390;DHT22;5241;47.830;12.972;2023-02-28T01:35:35;-3.60;99.90
10390;DHT22;5241;47.830;12.972;2023-02-28T01:38:02;-3.50;99.90
10390;DHT22;5241;47.830;12.972;2023-02-28T01:40:27;-3.60;99.90
10390;DHT22;5241;47.830;12.972;2023-02-28T01:42:53;-3.50;99.90
10390;DHT22;5241;47.830;12.972;2023-02-28T01:45:37;-3.40;99.90
10390;DHT22;5241;47.830;12.972;2023-02-28T01:48:05;-3.40;99.90
10390;DHT22;5241;47.830;12.972;2023-02-28T01:50:37;-3.30;99.90
10390;DHT22;5241;47.830;12.972;2023-02-28T01:53:07;-3.20;99.90
10390;DHT22;5241;47.830;12.972;2023-02-28T01:55:36;-3.20;99.90
10390;DHT22;5241;47.830;12.972;2023-02-28T01:58:04;-3.10;99.90
10390;DHT22;5241;47.830;12.972;2023-02-28T02:00:31;-3.10;99.90
10390;DHT22;5241;47.830;12.972;2023-02-28T02:02:59;-3.30;99.90
10390;DHT22;5241;47.830;12.972;2023-02-28T02:05:28;-3.30;99.90
10390;DHT22;5241;47.830;12.972;2023-02-28T02:07:58;-3.40;99.90
10390;DHT22;5241;47.830;12.972;2023-02-28T02:10:40;-3.50;99.90
10390;DHT22;5241;47.830;12.972;2023-02-28T02:24:42;-3.70;99.90
10390;DHT22;5241;47.830;12.972;2023-02-28T02:27:38;-3.90;99.90
10390;DHT22;5241;47.830;12.972;2023-02-28T02:30:40;-4.00;99.90
10390;DHT22;5241;47.830;12.972;2023-02-28T02:36:22;-4.20;99.90
10390;DHT22;5241;47.830;12.972;2023-02-28T02:44:26;-4.20;99.90
10390;DHT22;5241;47.830;12.972;2023-02-28T02:47:03;-4.30;99.90
10390;DHT22;5241;47.830;12.972;2023-02-28T02:49:32;-4.40;99.90
10390;DHT22;5241;47.830;12.972;2023-02-28T02:52:09;-4.50;99.90
10390;DHT22;5241;47.830;12.972;2023-02-28T02:54:38;-4.40;99.90
10390;DHT22;5241;47.830;12.972;2023-02-28T02:57:12;-4.30;99.90
10390;DHT22;5241;47.830;12.972;2023-02-28T02:59:40;-4.30;99.90
10390;DHT22;5241;47.830;12.972;2023-02-28T03:02:10;-4.20;99.90
10390;DHT22;5241;47.830;12.972;2023-02-28T03:04:45;-4.20;99.90
10390;DHT22;5241;47.830;12.972;2023-02-28T03:07:11;-4.30;99.90
10390;DHT22;5241;47.830;12.972;2023-02-28T03:09:37;-4.40;99.90
10390;DHT22;5241;47.830;12.972;2023-02-28T03:12:04;-4.50;99.90
10390;DHT22;5241;47.830;12.972;2023-02-28T03:14:56;-4.50;99.90
10390;DHT22;5241;47.830;12.972;2023-02-28T03:22:52;-4.50;99.90
10390;DHT22;5241;47.830;12.972;2023-02-28T03:25:31;-4.60;99.90
10390;DHT22;5241;47.830;12.972;2023-02-28T03:30:52;-4.70;99.90
10390;DHT22;5241;47.830;12.972;2023-02-28T03:33:34;-4.80;99.90
10390;DHT22;5241;47.830;12.972;2023-02-28T03:36:10;-4.80;99.90
10390;DHT22;5241;47.830;12.972;2023-02-28T03:38:38;-4.70;99.90
10390;DHT22;5241;47.830;12.972;2023-02-28T03:41:16;-4.70;99.90
10390;DHT22;5241;47.830;12.972;2023-02-28T03:44:01;-4.70;99.90
10390;DHT22;5241;47.830;12.972;2023-02-28T03:46:32;-4.80;99.90
10390;DHT22;5241;47.830;12.972;2023-02-28T03:49:11;-4.80;99.90
10390;DHT22;5241;47.830;12.972;2023-02-28T03:51:40;-4.50;99.90
10390;DHT22;5241;47.830;12.972;2023-02-28T03:54:22;-4.50;99.90
10390;DHT22;5241;47.830;12.972;2023-02-28T03:56:53;-4.50;99.90
10390;DHT22;5241;47.830;12.972;2023-02-28T04:01:52;-4.50;99.90
10390;DHT22;5241;47.830;12.972;2023-02-28T04:04:18;-4.50;99.90
10390;DHT22;5241;47.830;12.972;2023-02-28T04:06:44;-4.50;99.90
10390;DHT22;5241;47.830;12.972;2023-02-28T04:09:13;-4.50;99.90
10390;DHT22;5241;47.830;12.972;2023-02-28T04:11:40;-4.50;99.90
10390;DHT22;5241;47.830;12.972;2023-02-28T04:14:09;-4.60;99.90
10390;DHT22;5241;47.830;12.972;2023-02-28T04:16:38;-4.80;99.90
10390;DHT22;5241;47.830;12.972;2023-02-28T04:19:05;-4.90;99.90
10390;DHT22;5241;47.830;12.972;2023-02-28T04:21:33;-4.80;99.90
10390;DHT22;5241;47.830;12.972;2023-02-28T04:23:58;-4.70;99.90
10390;DHT22;5241;47.830;12.972;2023-02-28T04:26:28;-4.80;99.90
10390;DHT22;5241;47.830;12.972;2023-02-28T04:28:55;-4.90;99.90
10390;DHT22;5241;47.830;12.972;2023-02-28T04:31:21;-5.00;99.90
10390;DHT22;5241;47.830;12.972;2023-02-28T04:33:46;-4.90;99.90
10390;DHT22;5241;47.830;12.972;2023-02-28T04:36:12;-4.90;99.90
10390;DHT22;5241;47.830;12.972;2023-02-28T04:38:39;-4.90;99.90
10390;DHT22;5241;47.830;12.972;2023-02-28T04:41:05;-4.90;99.90
10390;DHT22;5241;47.830;12.972;2023-02-28T04:43:31;-4.90;99.90
10390;DHT22;5241;47.830;12.972;2023-02-28T04:45:58;-5.00;99.90
10390;DHT22;5241;47.830;12.972;2023-02-28T04:48:27;-5.00;99.90
10390;DHT22;5241;47.830;12.972;2023-02-28T04:50:54;-4.90;99.90
10390;DHT22;5241;47.830;12.972;2023-02-28T04:53:19;-4.80;99.90
10390;DHT22;5241;47.830;12.972;2023-02-28T04:55:45;-4.80;99.90
10390;DHT22;5241;47.830;12.972;2023-02-28T04:58:11;-4.80;99.90
10390;DHT22;5241;47.830;12.972;2023-02-28T05:00:37;-5.00;99.90
10390;DHT22;5241;47.830;12.972;2023-02-28T05:03:03;-5.10;99.90
10390;DHT22;5241;47.830;12.972;2023-02-28T05:05:28;-5.20;99.90
10390;DHT22;5241;47.830;12.972;2023-02-28T05:07:54;-5.20;99.90
10390;DHT22;5241;47.830;12.972;2023-02-28T05:10:21;-5.20;99.90
10390;DHT22;5241;47.830;12.972;2023-02-28T05:12:47;-5.10;99.90
10390;DHT22;5241;47.830;12.972;2023-02-28T05:15:14;-5.10;99.90
10390;DHT22;5241;47.830;12.972;2023-02-28T05:17:39;-5.10;99.90
10390;DHT22;5241;47.830;12.972;2023-02-28T05:20:06;-5.20;99.90
10390;DHT22;5241;47.830;12.972;2023-02-28T05:22:32;-5.30;99.90
10390;DHT22;5241;47.830;12.972;2023-02-28T05:24:58;-5.30;99.90
10390;DHT22;5241;47.830;12.972;2023-02-28T05:27:23;-5.30;99.90
10390;DHT22;5241;47.830;12.972;2023-02-28T05:29:49;-5.30;99.90
10390;DHT22;5241;47.830;12.972;2023-02-28T05:32:14;-5.20;99.90
10390;DHT22;5241;47.830;12.972;2023-02-28T05:34:41;-5.10;99.90
10390;DHT22;5241;47.830;12.972;2023-02-28T05:37:11;-5.10;99.90
10390;DHT22;5241;47.830;12.972;2023-02-28T05:39:37;-5.10;99.90
10390;DHT22;5241;47.830;12.972;2023-02-28T05:42:04;-5.20;99.90
10390;DHT22;5241;47.830;12.972;2023-02-28T05:44:30;-5.10;99.90
10390;DHT22;5241;47.830;12.972;2023-02-28T05:46:55;-4.90;99.90
10390;DHT22;5241;47.830;12.972;2023-02-28T05:49:21;-4.90;99.90
10390;DHT22;5241;47.830;12.972;2023-02-28T05:51:47;-5.00;99.90
10390;DHT22;5241;47.830;12.972;2023-02-28T05:54:13;-5.00;99.90
10390;DHT22;5241;47.830;12.972;2023-02-28T05:56:38;-4.80;99.90
10390;DHT22;5241;47.830;12.972;2023-02-28T05:59:09;-4.90;99.90
10390;DHT22;5241;47.830;12.972;2023-02-28T06:01:41;-4.90;99.90
10390;DHT22;5241;47.830;12.972;2023-02-28T06:04:09;-4.90;99.90
10390;DHT22;5241;47.830;12.972;2023-02-28T06:06:35;-5.00;99.90
10390;DHT22;5241;47.830;12.972;2023-02-28T06:09:03;-5.10;99.90
10390;DHT22;5241;47.830;12.972;2023-02-28T06:11:28;-5.00;99.90
10390;DHT22;5241;47.830;12.972;2023-02-28T06:13:58;-5.00;99.90
10390;DHT22;5241;47.830;12.972;2023-02-28T06:16:25;-5.00;99.90
10390;DHT22;5241;47.830;12.972;2023-02-28T06:18:52;-5.10;99.90
10390;DHT22;5241;47.830;12.972;2023-02-28T06:21:18;-5.10;99.90
10390;DHT22;5241;47.830;12.972;2023-02-28T06:23:44;-5.10;99.90
10390;DHT22;5241;47.830;12.972;2023-02-28T06:26:10;-5.00;99.90
10390;DHT22;5241;47.830;12.972;2023-02-28T06:28:36;-5.00;99.90
10390;DHT22;5241;47.830;12.972;2023-02-28T06:31:07;-4.90;99.90
10390;DHT22;5241;47.830;12.972;2023-02-28T06:33:33;-4.90;99.90
10390;DHT22;5241;47.830;12.972;2023-02-28T06:35:58;-4.90;99.90
10390;DHT22;5241;47.830;12.972;2023-02-28T06:38:24;-5.00;99.90
10390;DHT22;5241;47.830;12.972;2023-02-28T06:40:54;-4.90;99.90
10390;DHT22;5241;47.830;12.972;2023-02-28T06:43:20;-4.80;99.90
10390;DHT22;5241;47.830;12.972;2023-02-28T06:45:46;-4.70;99.90
10390;DHT22;5241;47.830;12.972;2023-02-28T06:48:11;-4.50;99.90
10390;DHT22;5241;47.830;12.972;2023-02-28T06:50:37;-4.50;99.90
10390;DHT22;5241;47.830;12.972;2023-02-28T06:53:02;-4.40;99.90
10390;DHT22;5241;47.830;12.972;2023-02-28T06:55:28;-4.40;99.90
10390;DHT22;5241;47.830;12.972;2023-02-28T06:57:53;-4.40;99.90
10390;DHT22;5241;47.830;12.972;2023-02-28T07:00:20;-4.40;99.90
10390;DHT22;5241;47.830;12.972;2023-02-28T07:02:46;-4.40;99.90
10390;DHT22;5241;47.830;12.972;2023-02-28T07:05:12;-4.30;99.90
10390;DHT22;5241;47.830;12.972;2023-02-28T07:07:38;-4.30;99.90
10390;DHT22;5241;47.830;12.972;2023-02-28T07:10:12;-4.20;99.90
10390;DHT22;5241;47.830;12.972;2023-02-28T07:12:38;-4.10;99.90
10390;DHT22;5241;47.830;12.972;2023-02-28T07:15:05;-3.90;99.90
10390;DHT22;5241;47.830;12.972;2023-02-28T07:17:30;-3.80;99.90
10390;DHT22;5241;47.830;12.972;2023-02-28T07:19:56;-3.70;99.90
10390;DHT22;5241;47.830;12.972;2023-02-28T07:22:21;-3.60;99.90
10390;DHT22;5241;47.830;12.972;2023-02-28T07:24:47;-3.60;99.90
10390;DHT22;5241;47.830;12.972;2023-02-28T07:27:13;-3.60;99.90
10390;DHT22;5241;47.830;12.972;2023-02-28T07:29:49;-3.50;99.90
10390;DHT22;5241;47.830;12.972;2023-02-28T07:32:14;-3.40;99.90
10390;DHT22;5241;47.830;12.972;2023-02-28T07:34:40;-3.40;99.90
10390;DHT22;5241;47.830;12.972;2023-02-28T07:37:06;-3.30;99.90
10390;DHT22;5241;47.830;12.972;2023-02-28T07:39:31;-3.20;99.90
10390;DHT22;5241;47.830;12.972;2023-02-28T07:41:57;-3.10;99.90
10390;DHT22;5241;47.830;12.972;2023-02-28T07:44:22;-3.10;99.90
10390;DHT22;5241;47.830;12.972;2023-02-28T07:46:48;-3.00;99.90
10390;DHT22;5241;47.830;12.972;2023-02-28T07:49:13;-2.90;99.90
10390;DHT22;5241;47.830;12.972;2023-02-28T07:51:39;-2.80;99.90
10390;DHT22;5241;47.830;12.972;2023-02-28T07:54:05;-2.70;99.90
10390;DHT22;5241;47.830;12.972;2023-02-28T07:56:30;-2.50;99.90
10390;DHT22;5241;47.830;12.972;2023-02-28T07:58:56;-2.30;99.90
10390;DHT22;5241;47.830;12.972;2023-02-28T08:01:21;-2.10;99.90
10390;DHT22;5241;47.830;12.972;2023-02-28T08:03:47;-2.00;99.90
10390;DHT22;5241;47.830;12.972;2023-02-28T08:06:20;-2.00;99.90
10390;DHT22;5241;47.830;12.972;2023-02-28T08:08:46;-1.90;99.90
10390;DHT22;5241;47.830;12.972;2023-02-28T08:11:11;-1.90;99.90
10390;DHT22;5241;47.830;12.972;2023-02-28T08:13:37;-1.70;99.90
10390;DHT22;5241;47.830;12.972;2023-02-28T08:16:02;-1.60;99.90
10390;DHT22;5241;47.830;12.972;2023-02-28T08:18:28;-1.50;99.90
10390;DHT22;5241;47.830;12.972;2023-02-28T08:20:54;-1.30;99.90
10390;DHT22;5241;47.830;12.972;2023-02-28T08:23:19;-1.00;99.90
10390;DHT22;5241;47.830;12.972;2023-02-28T08:25:45;-0.80;99.90
10390;DHT22;5241;47.830;12.972;2023-02-28T08:28:17;-0.50;99.90
10390;DHT22;5241;47.830;12.972;2023-02-28T08:30:43;-0.30;99.90
10390;DHT22;5241;47.830;12.972;2023-02-28T08:33:08;-0.10;99.90
10390;DHT22;5241;47.830;12.972;2023-02-28T08:35:36;-0.10;99.90
10390;DHT22;5241;47.830;12.972;2023-02-28T08:38:01;0.00;99.90
10390;DHT22;5241;47.830;12.972;2023-02-28T08:40:27;0.60;99.90
10390;DHT22;5241;47.830;12.972;2023-02-28T08:42:52;1.10;99.90
10390;DHT22;5241;47.830;12.972;2023-02-28T08:45:19;1.60;99.90
10390;DHT22;5241;47.830;12.972;2023-02-28T08:47:44;2.00;99.90
10390;DHT22;5241;47.830;12.972;2023-02-28T08:50:10;2.30;99.90
10390;DHT22;5241;47.830;12.972;2023-02-28T08:52:36;2.20;99.90
10390;DHT22;5241;47.830;12.972;2023-02-28T08:55:01;2.00;99.90
10390;DHT22;5241;47.830;12.972;2023-02-28T08:57:27;2.50;99.90
10390;DHT22;5241;47.830;12.972;2023-02-28T08:59:52;3.20;99.90
10390;DHT22;5241;47.830;12.972;2023-02-28T09:02:18;3.30;99.90
10390;DHT22;5241;47.830;12.972;2023-02-28T09:04:44;3.60;99.90
10390;DHT22;5241;47.830;12.972;2023-02-28T09:07:12;3.80;99.90
10390;DHT22;5241;47.830;12.972;2023-02-28T09:09:38;3.70;99.90
10390;DHT22;5241;47.830;12.972;2023-02-28T09:12:25;3.60;99.90
10390;DHT22;5241;47.830;12.972;2023-02-28T09:14:51;3.90;99.90
10390;DHT22;5241;47.830;12.972;2023-02-28T09:17:17;3.90;99.90
10390;DHT22;5241;47.830;12.972;2023-02-28T09:19:43;3.70;99.90
10390;DHT22;5241;47.830;12.972;2023-02-28T09:22:10;3.60;99.90
10390;DHT22;5241;47.830;12.972;2023-02-28T09:24:37;3.70;99.90
10390;DHT22;5241;47.830;12.972;2023-02-28T09:27:03;4.10;99.90
10390;DHT22;5241;47.830;12.972;2023-02-28T09:29:29;4.20;99.90
10390;DHT22;5241;47.830;12.972;2023-02-28T09:31:54;4.00;99.90
10390;DHT22;5241;47.830;12.972;2023-02-28T09:34:21;3.70;99.90
10390;DHT22;5241;47.830;12.972;2023-02-28T09:36:46;4.10;99.90
10390;DHT22;5241;47.830;12.972;2023-02-28T09:39:12;3.90;99.90
10390;DHT22;5241;47.830;12.972;2023-02-28T09:41:43;3.60;99.90
10390;DHT22;5241;47.830;12.972;2023-02-28T09:46:53;3.30;99.90
10390;DHT22;5241;47.830;12.972;2023-02-28T09:49:23;3.70;99.90
10390;DHT22;5241;47.830;12.972;2023-02-28T09:52:03;4.00;99.90
10390;DHT22;5241;47.830;12.972;2023-02-28T09:54:31;4.10;99.90
10390;DHT22;5241;47.830;12.972;2023-02-28T10:02:57;3.40;99.90
10390;DHT22;5241;47.830;12.972;2023-02-28T10:05:55;3.90;99.90
10390;DHT22;5241;47.830;12.972;2023-02-28T10:09:01;3.80;99.90
10390;DHT22;5241;47.830;12.972;2023-02-28T10:11:30;4.70;99.90
10390;DHT22;5241;47.830;12.972;2023-02-28T10:14:13;4.90;99.90
10390;DHT22;5241;47.830;12.972;2023-02-28T10:17:03;4.70;99.90
10390;DHT22;5241;47.830;12.972;2023-02-28T10:19:40;4.60;99.90
10390;DHT22;5241;47.830;12.972;2023-02-28T10:22:20;4.10;99.90
10390;DHT22;5241;47.830;12.972;2023-02-28T10:24:49;4.30;99.90
10390;DHT22;5241;47.830;12.972;2023-02-28T10:27:23;4.30;99.90
10390;DHT22;5241;47.830;12.972;2023-02-28T10:29:52;3.90;99.90
10390;DHT22;5241;47.830;12.972;2023-02-28T10:32:21;4.20;99.90
10390;DHT22;5241;47.830;12.972;2023-02-28T10:37:41;3.60;99.90
10390;DHT22;5241;47.830;12.972;2023-02-28T10:40:32;3.50;99.90
10390;DHT22;5241;47.830;12.972;2023-02-28T10:43:05;3.20;99.90
10390;DHT22;5241;47.830;12.972;2023-02-28T10:45:32;2.80;99.90
10390;DHT22;5241;47.830;12.972;2023-02-28T10:56:04;3.90;99.90
10390;DHT22;5241;47.830;12.972;2023-02-28T11:01:22;4.40;99.90
10390;DHT22;5241;47.830;12.972;2023-02-28T11:03:49;4.30;99.90
10390;DHT22;5241;47.830;12.972;2023-02-28T11:06:32;4.60;99.90
10390;DHT22;5241;47.830;12.972;2023-02-28T11:09:02;3.80;99.90
10390;DHT22;5241;47.830;12.972;2023-02-28T11:11:29;3.40;99.90
10390;DHT22;5241;47.830;12.972;2023-02-28T11:14:03;2.90;99.90
10390;DHT22;5241;47.830;12.972;2023-02-28T11:16:37;3.60;99.90
10390;DHT22;5241;47.830;12.972;2023-02-28T11:19:06;4.80;99.90
10390;DHT22;5241;47.830;12.972;2023-02-28T11:21:34;4.90;99.90
10390;DHT22;5241;47.830;12.972;2023-02-28T11:26:48;5.70;99.90
10390;DHT22;5241;47.830;12.972;2023-02-28T11:29:30;5.90;99.90
10390;DHT22;5241;47.830;12.972;2023-02-28T11:32:05;6.30;99.90
10390;DHT22;5241;47.830;12.972;2023-02-28T11:34:37;5.10;99.90
10390;DHT22;5241;47.830;12.972;2023-02-28T11:37:05;4.90;99.90
10390;DHT22;5241;47.830;12.972;2023-02-28T11:39:32;5.20;99.90
10390;DHT22;5241;47.830;12.972;2023-02-28T11:42:20;5.20;99.90
10390;DHT22;5241;47.830;12.972;2023-02-28T11:46:00;4.90;99.90
10390;DHT22;5241;47.830;12.972;2023-02-28T11:53:17;4.60;99.90
10390;DHT22;5241;47.830;12.972;2023-02-28T11:56:02;4.80;99.90
10390;DHT22;5241;47.830;12.972;2023-02-28T11:58:40;5.40;99.90
10390;DHT22;5241;47.830;12.972;2023-02-28T12:04:03;5.20;99.90
10390;DHT22;5241;47.830;12.972;2023-02-28T12:06:45;5.00;99.90
10390;DHT22;5241;47.830;12.972;2023-02-28T12:12:16;4.90;99.90
10390;DHT22;5241;47.830;12.972;2023-02-28T12:20:46;5.60;99.90
10390;DHT22;5241;47.830;12.972;2023-02-28T12:28:44;7.30;98.00
10390;DHT22;5241;47.830;12.972;2023-02-28T12:31:18;7.80;99.90
10390;DHT22;5241;47.830;12.972;2023-02-28T12:33:48;7.60;97.90
10390;DHT22;5241;47.830;12.972;2023-02-28T12:36:17;6.70;99.20
10390;DHT22;5241;47.830;12.972;2023-02-28T12:39:12;6.70;99.80
10390;DHT22;5241;47.830;12.972;2023-02-28T12:47:03;5.80;99.00
10390;DHT22;5241;47.830;12.972;2023-02-28T12:52:00;5.90;99.90
10390;DHT22;5241;47.830;12.972;2023-02-28T12:57:14;6.50;99.10
10390;DHT22;5241;47.830;12.972;2023-02-28T12:59:54;6.10;99.70
10390;DHT22;5241;47.830;12.972;2023-02-28T13:10:47;7.10;99.60
10390;DHT22;5241;47.830;12.972;2023-02-28T13:13:24;6.80;98.90
10390;DHT22;5241;47.830;12.972;2023-02-28T13:16:17;6.50;98.70
10390;DHT22;5241;47.830;12.972;2023-02-28T13:18:44;6.10;99.80
10390;DHT22;5241;47.830;12.972;2023-02-28T13:21:29;5.90;99.90
10390;DHT22;5241;47.830;12.972;2023-02-28T13:23:57;5.80;99.20
10390;DHT22;5241;47.830;12.972;2023-02-28T13:29:49;5.00;99.90
10390;DHT22;5241;47.830;12.972;2023-02-28T13:39:56;5.50;99.90
10390;DHT22;5241;47.830;12.972;2023-02-28T13:48:02;5.50;99.90
10390;DHT22;5241;47.830;12.972;2023-02-28T13:50:39;5.60;99.90
10390;DHT22;5241;47.830;12.972;2023-02-28T14:03:53;4.70;99.90
10390;DHT22;5241;47.830;12.972;2023-02-28T14:06:30;5.10;99.90
10390;DHT22;5241;47.830;12.972;2023-02-28T14:11:35;5.00;99.90
10390;DHT22;5241;47.830;12.972;2023-02-28T14:14:02;4.80;99.90
10390;DHT22;5241;47.830;12.972;2023-02-28T14:16:37;4.70;99.90
10390;DHT22;5241;47.830;12.972;2023-02-28T14:19:19;4.70;99.90
10390;DHT22;5241;47.830;12.972;2023-02-28T14:24:40;4.80;99.90
10390;DHT22;5241;47.830;12.972;2023-02-28T14:27:17;4.50;99.90
10390;DHT22;5241;47.830;12.972;2023-02-28T14:37:47;3.80;99.90
10390;DHT22;5241;47.830;12.972;2023-02-28T14:40:27;3.80;99.90
10390;DHT22;5241;47.830;12.972;2023-02-28T14:43:02;3.70;99.90
10390;DHT22;5241;47.830;12.972;2023-02-28T14:45:33;3.70;99.90
10390;DHT22;5241;47.830;12.972;2023-02-28T14:48:01;3.70;99.90
10390;DHT22;5241;47.830;12.972;2023-02-28T14:50:31;3.50;99.90
10390;DHT22;5241;47.830;12.972;2023-02-28T14:52:57;3.50;99.90
10390;DHT22;5241;47.830;12.972;2023-02-28T14:55:28;3.40;99.90
10390;DHT22;5241;47.830;12.972;2023-02-28T14:58:05;3.60;99.90
10390;DHT22;5241;47.830;12.972;2023-02-28T15:00:36;3.70;99.90
10390;DHT22;5241;47.830;12.972;2023-02-28T15:03:20;3.70;99.90
10390;DHT22;5241;47.830;12.972;2023-02-28T15:05:56;3.60;99.90
10390;DHT22;5241;47.830;12.972;2023-02-28T15:08:23;3.50;99.90
10390;DHT22;5241;47.830;12.972;2023-02-28T15:11:07;3.60;99.90
10390;DHT22;5241;47.830;12.972;2023-02-28T15:13:44;3.50;99.90
10390;DHT22;5241;47.830;12.972;2023-02-28T15:16:19;3.40;99.90
10390;DHT22;5241;47.830;12.972;2023-02-28T15:18:56;3.50;99.90
10390;DHT22;5241;47.830;12.972;2023-02-28T15:21:31;3.50;99.90
10390;DHT22;5241;47.830;12.972;2023-02-28T15:24:07;3.40;99.90
10390;DHT22;5241;47.830;12.972;2023-02-28T15:26:41;3.40;99.90
10390;DHT22;5241;47.830;12.972;2023-02-28T15:29:21;3.30;99.90
10390;DHT22;5241;47.830;12.972;2023-02-28T15:32:03;3.30;99.90
10390;DHT22;5241;47.830;12.972;2023-02-28T15:34:40;3.20;99.90
10390;DHT22;5241;47.830;12.972;2023-02-28T15:37:29;3.30;99.90
10390;DHT22;5241;47.830;12.972;2023-02-28T15:40:12;3.20;99.90
10390;DHT22;5241;47.830;12.972;2023-02-28T15:42:37;3.00;99.90
10390;DHT22;5241;47.830;12.972;2023-02-28T15:45:03;3.00;99.90
10390;DHT22;5241;47.830;12.972;2023-02-28T15:47:30;3.00;99.90
10390;DHT22;5241;47.830;12.972;2023-02-28T15:50:01;2.90;99.90
10390;DHT22;5241;47.830;12.972;2023-02-28T15:55:18;3.00;99.90
10390;DHT22;5241;47.830;12.972;2023-02-28T15:57:46;3.00;99.90
10390;DHT22;5241;47.830;12.972;2023-02-28T16:00:16;3.00;99.90
10390;DHT22;5241;47.830;12.972;2023-02-28T16:02:42;2.90;99.90
10390;DHT22;5241;47.830;12.972;2023-02-28T16:07:41;2.90;99.90
10390;DHT22;5241;47.830;12.972;2023-02-28T16:10:09;2.90;99.90
10390;DHT22;5241;47.830;12.972;2023-02-28T16:12:36;3.00;99.90
10390;DHT22;5241;47.830;12.972;2023-02-28T16:15:16;3.20;99.90
10390;DHT22;5241;47.830;12.972;2023-02-28T16:17:42;3.20;99.90
10390;DHT22;5241;47.830;12.972;2023-02-28T16:20:16;3.10;99.90
10390;DHT22;5241;47.830;12.972;2023-02-28T16:22:43;3.00;99.90
10390;DHT22;5241;47.830;12.972;2023-02-28T16:25:13;3.00;99.90
10390;DHT22;5241;47.830;12.972;2023-02-28T16:27:39;3.00;99.90
10390;DHT22;5241;47.830;12.972;2023-02-28T16:30:06;3.00;99.90
10390;DHT22;5241;47.830;12.972;2023-02-28T16:32:35;2.80;99.90
10390;DHT22;5241;47.830;12.972;2023-02-28T16:35:01;2.80;99.90
10390;DHT22;5241;47.830;12.972;2023-02-28T16:37:27;2.90;99.90
10390;DHT22;5241;47.830;12.972;2023-02-28T16:39:53;2.90;99.90
10390;DHT22;5241;47.830;12.972;2023-02-28T16:42:27;2.80;99.90
10390;DHT22;5241;47.830;12.972;2023-02-28T16:44:54;2.80;99.90
10390;DHT22;5241;47.830;12.972;2023-02-28T16:47:20;2.70;99.90
10390;DHT22;5241;47.830;12.972;2023-02-28T16:49:45;2.70;99.90
10390;DHT22;5241;47.830;12.972;2023-02-28T16:52:13;2.70;99.90
10390;DHT22;5241;47.830;12.972;2023-02-28T16:54:39;2.70;99.90
10390;DHT22;5241;47.830;12.972;2023-02-28T16:57:06;2.80;99.90
10390;DHT22;5241;47.830;12.972;2023-02-28T16:59:39;2.80;99.90
10390;DHT22;5241;47.830;12.972;2023-02-28T17:02:12;2.80;99.90
10390;DHT22;5241;47.830;12.972;2023-02-28T17:04:38;2.70;99.90
10390;DHT22;5241;47.830;12.972;2023-02-28T17:07:04;2.70;99.90
10390;DHT22;5241;47.830;12.972;2023-02-28T17:09:29;2.80;99.90
10390;DHT22;5241;47.830;12.972;2023-02-28T17:11:54;2.80;99.90
10390;DHT22;5241;47.830;12.972;2023-02-28T17:14:21;2.80;99.90
10390;DHT22;5241;47.830;12.972;2023-02-28T17:16:48;2.80;99.90
10390;DHT22;5241;47.830;12.972;2023-02-28T17:19:15;2.80;99.90
10390;DHT22;5241;47.830;12.972;2023-02-28T17:21:42;2.80;99.90
10390;DHT22;5241;47.830;12.972;2023-02-28T17:24:09;2.80;99.90
10390;DHT22;5241;47.830;12.972;2023-02-28T17:26:40;2.80;99.90
10390;DHT22;5241;47.830;12.972;2023-02-28T17:29:16;2.70;99.90
10390;DHT22;5241;47.830;12.972;2023-02-28T17:31:43;2.70;99.90
10390;DHT22;5241;47.830;12.972;2023-02-28T17:34:08;2.70;99.90
10390;DHT22;5241;47.830;12.972;2023-02-28T17:36:34;2.70;99.90
10390;DHT22;5241;47.830;12.972;2023-02-28T17:39:03;2.60;99.90
10390;DHT22;5241;47.830;12.972;2023-02-28T17:41:28;2.70;99.90
10390;DHT22;5241;47.830;12.972;2023-02-28T17:43:55;2.70;99.90
10390;DHT22;5241;47.830;12.972;2023-02-28T17:46:23;2.70;99.90
10390;DHT22;5241;47.830;12.972;2023-02-28T17:48:50;2.70;99.90
10390;DHT22;5241;47.830;12.972;2023-02-28T17:51:18;2.70;99.90
10390;DHT22;5241;47.830;12.972;2023-02-28T17:53:44;2.70;99.90
10390;DHT22;5241;47.830;12.972;2023-02-28T17:56:14;2.60;99.90
10390;DHT22;5241;47.830;12.972;2023-02-28T17:58:40;2.70;99.90
10390;DHT22;5241;47.830;12.972;2023-02-28T18:01:06;2.70;99.90
10390;DHT22;5241;47.830;12.972;2023-02-28T18:03:32;2.70;99.90
10390;DHT22;5241;47.830;12.972;2023-02-28T18:05:59;2.70;99.90
10390;DHT22;5241;47.830;12.972;2023-02-28T18:08:24;2.70;99.90
10390;DHT22;5241;47.830;12.972;2023-02-28T18:10:51;2.70;99.90
10390;DHT22;5241;47.830;12.972;2023-02-28T18:13:17;2.70;99.90
10390;DHT22;5241;47.830;12.972;2023-02-28T18:15:42;2.70;99.90